Nearby METAR Reports

 

KDPA - Chicago/Dupage, Illinois, USA
Distance from station: NW 11mi, 18km
Updated: Mon, 03-Oct-2022 12:52pm CDT
Clear
Clear
 Wind from NW
Wind: NW 3 mph , 6 km/h
Temperature: 64°F , 18°C
Dew Point: 41°F , 5°C
Humidity: 43%
Barometer: 30.36 inHg , 1028.1 hPa
Clouds: Clear
Visibility: 10 miles , 16 km
2022/10/03 17:52 KDPA 031752Z 31003KT 10SM CLR 18/05 A3036 RMK AO2 SLP282 T01830050 10189 20044 58013
KLOT - Romeoville/Chi, Illinois, USA
Distance from station: S 13mi, 21km
Updated: Mon, 03-Oct-2022 1:35pm CDT
Clear
Clear
 Wind from varies
Wind: varies 5 mph , 7 km/h
Temperature: 66°F , 19°C
Dew Point: 41°F , 5°C
Humidity: 40%
Barometer: 30.36 inHg , 1028.1 hPa
Clouds: Clear
Visibility: 10 miles , 16 km
2022/10/03 18:35 KLOT 031835Z AUTO VRB04KT 10SM CLR 19/05 A3036 RMK AO2
 
KORD - Chicago O'Hare, Illinois, USA
Distance from station: NE 17mi, 27km
Updated: Mon, 03-Oct-2022 12:51pm CDT
Few Clouds
Few Clouds
 Wind from calm
Wind: Calm
Temperature: 64°F , 18°C
Dew Point: 43°F , 6°C
Humidity: 46%
Barometer: 30.36 inHg , 1028.1 hPa
Clouds: Few Clouds
Visibility: 10 miles , 16 km
Cloud details: Few Clouds 25000 ft
2022/10/03 17:51 KORD 031751Z 00000KT 10SM FEW250 18/06 A3036 RMK AO2 SLP281 T01830056 10189 20072 58012
KARR - Chicago/Aurora, Illinois, USA
Distance from station: W 19mi, 30km
Updated: Mon, 03-Oct-2022 12:52pm CDT
Clear
Clear
 Wind from SSE
Wind: SSE 5 mph , 7 km/h
Temperature: 64°F , 18°C
Dew Point: 41°F , 5°C
Humidity: 43%
Barometer: 30.36 inHg , 1028.1 hPa
Clouds: Clear
Visibility: 10 miles , 16 km
2022/10/03 17:52 KARR 031752Z 15004KT 10SM CLR 18/05 A3036 RMK AO2 SLP283 T01830050 10183 20039 58015
 
KJOT - Joliet, Illinois, USA
Distance from station: S 19mi, 31km
Updated: Mon, 03-Oct-2022 1:35pm CDT
Clear
Clear
 Wind from SE
Wind: SE 3 mph , 6 km/h
Temperature: 68°F , 20°C
Dew Point: 41°F , 5°C
Humidity: 38%
Barometer: 30.35 inHg , 1027.8 hPa
Clouds: Clear
Visibility: 10 miles , 16 km
2022/10/03 18:35 KJOT 031835Z AUTO 14003KT 10SM CLR 20/05 A3035 RMK AO2 T02000050
KMDW - Chicago, Illinois, USA
Distance from station: E 19mi, 31km
Updated: Mon, 03-Oct-2022 12:53pm CDT
Few Clouds
Few Clouds
 Wind from N
Wind: N 7 mph , 11 km/h
Temperature: 68°F , 20°C
Dew Point: 36°F , 2°C
Humidity: 30%
Barometer: 30.36 inHg , 1028.1 hPa
Clouds: Few Clouds
Visibility: 10 miles , 16 km
Cloud details: Few Clouds 25000 ft
2022/10/03 17:53 KMDW 031753Z 35006KT 10SM FEW250 20/02 A3036 RMK AO2 SLP277 T02000022 10200 20106 58015
 
KPWK - Palwaukee, Illinois, USA
Distance from station: NNE 25mi, 41km
Updated: Mon, 03-Oct-2022 12:52pm CDT
Clear
Clear
 Wind from NNE
Wind: NNE 6 mph , 9 km/h
Temperature: 66°F , 19°C
Dew Point: 46°F , 8°C
Humidity: 49%
Barometer: 30.38 inHg , 1028.8 hPa
Clouds: Clear
Visibility: 10 miles , 16 km
2022/10/03 17:52 KPWK 031752Z 02005KT 10SM CLR 19/08 A3038 RMK AO2 SLP288 T01890083 10194 20061 58012 $
KC09 - Morris-Washburn, Illinois, USA
Distance from station: SSW 29mi, 47km
Updated: Mon, 03-Oct-2022 1:35pm CDT
Clear
Clear
 Wind from calm
Wind: Calm
Temperature: 68°F , 20°C
Dew Point: 39°F , 4°C
Humidity: 35%
Barometer: 30.34 inHg , 1027.4 hPa
Clouds: Clear
Visibility: 10 miles , 16 km
2022/10/03 18:35 KC09 031835Z AUTO 00000KT 10SM CLR 20/04 A3034 RMK AO2 T01990042
 
KDKB - De Kalb, Illinois, USA
Distance from station: WNW 31mi, 50km
Updated: Mon, 03-Oct-2022 1:35pm CDT
Clear
Clear
 Wind from SSW
Wind: SSW 3 mph , 6 km/h
Temperature: 66°F , 19°C
Dew Point: 43°F , 6°C
Humidity: 43%
Barometer: 30.36 inHg , 1028.1 hPa
Clouds: Clear
Visibility: 10 miles , 16 km
2022/10/03 18:35 KDKB 031835Z AUTO 20003KT 10SM CLR 19/06 A3036 RMK AO2 T01850057
KIGQ - Chicago/Lansing, Illinois, USA
Distance from station: ESE 35mi, 57km
Updated: Mon, 03-Oct-2022 1:35pm CDT
Clear
Clear
 Wind from NNE
Wind: NNE 6 mph , 9 km/h
Temperature: 64°F , 18°C
Dew Point: 43°F , 6°C
Humidity: 46%
Barometer: 30.36 inHg , 1028.1 hPa
Clouds: Clear
Visibility: 10 miles , 16 km
2022/10/03 18:35 KIGQ 031835Z AUTO 03005KT 10SM CLR 18/06 A3036 RMK AO2 T01770061
 
KGYY - Gary Regional, Indiana, USA
Distance from station: ESE 38mi, 62km
Updated: Mon, 03-Oct-2022 1:45pm CDT
Clear
Clear
 Wind from N
Wind: N 8 mph , 13 km/h
Temperature: 61°F , 16°C
Dew Point: 43°F , 6°C
Humidity: 52%
Barometer: 30.37 inHg , 1028.4 hPa
Clouds: Clear
Visibility: 10 miles , 16 km
2022/10/03 18:45 KGYY 031845Z 36007KT 10SM CLR 16/06 A3037
KUGN - Waukegan, Illinois, USA
Distance from station: NNE 45mi, 73km
Updated: Mon, 03-Oct-2022 12:55pm CDT
Clear
Clear
 Wind from E
Wind: E 7 mph , 11 km/h
Temperature: 63°F , 17°C
Dew Point: 48°F , 9°C
Humidity: 59%
Barometer: 30.37 inHg , 1028.4 hPa
Clouds: Clear
Visibility: 10 miles , 16 km
2022/10/03 17:55 KUGN 031755Z 08006KT 10SM CLR 17/09 A3037 RMK AO2 SLP280 T01670089 10172 20050 58011
 
KRPJ - Rochelle/Koritz, Illinois, USA
Distance from station: W 50mi, 80km
Updated: Mon, 03-Oct-2022 1:35pm CDT
Clear
Clear
 Wind from SSW
Wind: SSW 5 mph , 7 km/h
Temperature: 66°F , 19°C
Dew Point: 45°F , 7°C
Humidity: 46%
Barometer: 30.35 inHg , 1027.8 hPa
Clouds: Clear
Visibility: 10 miles , 16 km
2022/10/03 18:35 KRPJ 031835Z AUTO 21004KT 10SM CLR 19/07 A3035 RMK AO2 T01940065 TSNO